createdAt,value
2018-05-16T04:01:45.466Z,74.50
2018-05-16T04:04:18.275Z,74.50
2018-05-16T04:06:48.074Z,75.00
2018-05-16T04:09:17.133Z,74.90
2018-05-16T04:11:46.152Z,75.20
2018-05-16T04:14:15.216Z,75.50
2018-05-16T04:16:44.246Z,75.20
2018-05-16T04:19:13.302Z,74.80
2018-05-16T04:21:42.347Z,74.90
2018-05-16T04:24:12.171Z,74.60
2018-05-16T04:26:41.202Z,74.50
2018-05-16T04:29:10.239Z,74.00
2018-05-16T04:31:40.066Z,74.40
2018-05-16T04:34:09.872Z,75.00
2018-05-16T04:36:38.891Z,75.00
2018-05-16T04:39:07.938Z,74.90
2018-05-16T04:41:36.956Z,75.00
2018-05-16T04:44:06.020Z,75.20
2018-05-16T04:46:35.028Z,75.30
2018-05-16T04:49:04.802Z,74.80
2018-05-16T04:51:34.187Z,74.90
2018-05-16T04:54:03.294Z,74.30
2018-05-16T04:56:32.299Z,74.30
2018-05-16T04:59:01.312Z,74.30
2018-05-16T05:01:30.355Z,74.60
2018-05-16T05:03:59.369Z,74.60
2018-05-16T05:06:28.416Z,73.90
2018-05-16T05:08:58.209Z,75.10
2018-05-16T05:11:27.228Z,75.10
2018-05-16T05:13:56.295Z,75.40
2018-05-16T05:16:26.071Z,73.50
2018-05-16T05:18:55.095Z,73.30
2018-05-16T05:21:24.140Z,73.70
2018-05-16T05:23:53.151Z,74.00
2018-05-16T05:26:25.471Z,73.80
2018-05-16T05:28:55.253Z,72.60
2018-05-16T05:31:24.273Z,72.60
2018-05-16T05:33:54.080Z,73.10
2018-05-16T05:36:23.136Z,72.90
2018-05-16T05:38:52.156Z,73.00
2018-05-16T05:41:21.215Z,73.10
2018-05-16T05:43:50.239Z,74.00
2018-05-16T05:46:19.261Z,73.70
2018-05-16T05:48:48.307Z,73.80
2018-05-16T05:51:17.314Z,74.00
2018-05-16T05:53:46.333Z,73.10
2018-05-16T05:56:16.140Z,73.70
2018-05-16T05:58:45.168Z,73.70
2018-05-16T06:01:14.211Z,73.50
2018-05-16T06:03:44.006Z,73.40
2018-05-16T06:06:13.070Z,72.80
2018-05-16T06:08:42.091Z,72.70
2018-05-16T06:11:11.107Z,72.60
2018-05-16T06:13:40.167Z,72.70
2018-05-16T06:16:09.178Z,72.40
2018-05-16T06:18:38.197Z,72.00
2018-05-16T06:21:07.275Z,72.00
2018-05-16T06:23:36.284Z,71.50
2018-05-16T06:26:06.064Z,71.50
2018-05-16T06:28:35.147Z,72.30
2018-05-16T06:31:04.167Z,71.40
2018-05-16T06:33:33.180Z,71.20
2018-05-16T06:36:02.223Z,72.90
2018-05-16T06:38:31.264Z,71.70
2018-05-16T06:41:01.031Z,71.30
2018-05-16T06:43:30.071Z,71.30
2018-05-16T06:45:59.995Z,71.00
2018-05-16T06:48:28.859Z,71.00
2018-05-16T06:50:58.687Z,69.40
2018-05-16T06:53:27.704Z,69.30
2018-05-16T06:55:56.716Z,68.90
2018-05-16T06:58:25.752Z,67.40
2018-05-16T07:00:54.758Z,65.80
2018-05-16T07:03:24.555Z,65.20
2018-05-16T07:05:53.606Z,65.20
2018-05-16T07:08:22.642Z,65.40
2018-05-16T07:10:51.671Z,67.00
2018-05-16T07:13:20.686Z,66.30
2018-05-16T07:15:49.724Z,64.30
2018-05-16T07:18:18.727Z,65.10
2018-05-16T07:20:47.779Z,63.70
2018-05-16T07:23:16.800Z,63.20
2018-05-16T07:25:45.876Z,61.80
2018-05-16T07:28:14.887Z,61.90
2018-05-16T07:30:43.909Z,61.10
2018-05-16T07:33:12.948Z,62.60
2018-05-16T07:35:41.972Z,63.40
2018-05-16T07:38:11.019Z,63.00
2018-05-16T07:40:40.039Z,63.50
2018-05-16T07:43:09.087Z,64.10
2018-05-16T07:45:38.096Z,63.50
2018-05-16T07:48:07.108Z,63.30
2018-05-16T07:50:36.153Z,63.50
2018-05-16T07:53:05.162Z,62.90
2018-05-16T07:55:34.167Z,63.80
2018-05-16T07:58:03.215Z,64.10
2018-05-16T15:02:19.591Z,50.40
2018-05-16T15:04:49.173Z,50.00
2018-05-16T15:07:19.794Z,50.70
2018-05-16T15:09:49.026Z,50.70
2018-05-16T15:12:18.106Z,51.90
2018-05-16T15:14:47.803Z,53.60
2018-05-16T15:17:17.122Z,56.90
2018-05-16T15:19:46.934Z,60.30
2018-05-16T15:22:15.983Z,60.20
2018-05-16T15:24:45.051Z,62.50
2018-05-16T15:27:14.959Z,63.50
2018-05-16T15:29:44.084Z,63.40
2018-05-16T15:32:22.711Z,65.00
2018-05-16T15:34:51.739Z,64.10
2018-05-16T15:37:21.674Z,64.60
2018-05-16T15:39:50.886Z,65.40
2018-05-16T15:42:20.040Z,66.80
2018-05-16T15:44:49.168Z,67.30
2018-05-16T15:47:18.354Z,67.50
2018-05-16T15:49:47.455Z,67.20
2018-05-16T15:52:16.455Z,68.30
2018-05-16T15:54:46.574Z,68.40
2018-05-16T15:57:15.599Z,69.30
2018-05-16T15:59:44.619Z,70.40
2018-05-16T16:02:13.675Z,70.00
2018-05-16T16:04:42.709Z,70.70
2018-05-16T16:07:11.829Z,71.90
2018-05-16T16:09:40.921Z,70.90
2018-05-16T16:12:09.952Z,70.70
2018-05-16T16:14:39.371Z,70.20
2018-05-16T16:17:09.736Z,70.70
2018-05-16T16:19:39.149Z,70.70
2018-05-16T16:22:08.207Z,71.70
2018-05-16T16:24:37.323Z,72.60
2018-05-16T16:27:06.579Z,73.10
2018-05-16T16:29:35.774Z,72.70
2018-05-16T16:32:04.934Z,72.80
2018-05-16T16:34:34.200Z,72.60
2018-05-16T16:37:03.403Z,71.40
2018-05-16T16:39:32.463Z,72.90
2018-05-16T16:42:01.716Z,72.90
2018-05-16T16:44:31.018Z,72.30
2018-05-16T16:47:00.132Z,72.40
2018-05-16T16:49:29.293Z,72.10
2018-05-16T16:51:58.371Z,71.90
2018-05-16T16:54:27.584Z,72.10
2018-05-16T16:56:57.001Z,71.60
2018-05-16T16:59:26.139Z,69.60
2018-05-16T17:01:55.356Z,69.30
2018-05-16T17:04:24.375Z,68.80
2018-05-16T17:06:54.847Z,69.00
2018-05-16T17:09:24.363Z,69.00
2018-05-16T17:11:53.524Z,68.90
2018-05-16T17:14:22.638Z,69.00
2018-05-16T17:16:51.667Z,68.50
2018-05-16T17:19:20.708Z,69.00
2018-05-16T17:21:50.127Z,69.20
2018-05-16T17:24:19.144Z,68.70
2018-05-16T17:26:48.168Z,68.20
2018-05-16T17:29:17.187Z,68.10
2018-05-16T17:31:46.206Z,67.80
2018-05-16T17:34:15.254Z,67.70
2018-05-16T17:36:44.263Z,66.30
2018-05-16T17:39:13.320Z,65.00
2018-05-16T17:41:42.360Z,65.20
2018-05-16T17:44:12.256Z,65.30
2018-05-16T17:46:42.181Z,66.00
2018-05-16T17:49:11.173Z,67.90
2018-05-16T17:51:40.941Z,66.20
2018-05-16T17:56:50.638Z,65.70
2018-05-16T17:59:19.679Z,67.00
2018-05-16T18:01:48.712Z,66.50
2018-05-16T18:04:18.539Z,67.70
2018-05-16T18:06:48.318Z,67.80
2018-05-16T18:09:17.355Z,67.80
2018-05-16T18:11:46.358Z,68.50
2018-05-16T18:14:33.619Z,68.80
2018-05-16T18:17:15.203Z,69.10
2018-05-16T18:19:44.244Z,69.50
2018-05-16T18:22:13.260Z,68.80
2018-05-16T18:24:42.390Z,70.90
2018-05-16T18:27:11.547Z,71.80
2018-05-16T18:29:41.814Z,72.60
2018-05-16T18:32:10.950Z,72.70
2018-05-16T18:34:40.161Z,73.00
2018-05-16T18:37:10.717Z,73.00
2018-05-16T18:39:40.005Z,72.40
2018-05-16T18:42:09.371Z,72.90
2018-05-16T18:44:38.928Z,73.80
2018-05-16T18:47:08.001Z,74.10
2018-05-16T18:49:37.130Z,74.10
2018-05-16T18:52:06.231Z,73.70
2018-05-16T18:54:35.271Z,73.90
2018-05-16T18:57:04.279Z,74.00
2018-05-16T18:59:33.363Z,74.00
2018-05-16T19:02:02.467Z,74.40
2018-05-16T19:04:32.695Z,74.60
2018-05-16T19:07:02.047Z,74.50
2018-05-16T19:09:32.391Z,73.80
2018-05-16T19:12:02.450Z,73.40
2018-05-16T19:14:31.817Z,73.40
2018-05-16T19:17:00.989Z,73.40
2018-05-16T19:19:31.072Z,73.70
2018-05-16T19:22:00.626Z,73.70
2018-05-16T19:24:30.067Z,74.00
2018-05-16T19:26:59.295Z,74.60
2018-05-16T19:29:28.581Z,74.70
2018-05-16T19:31:58.028Z,74.60
2018-05-16T19:34:27.265Z,74.70
2018-05-16T19:36:56.763Z,74.60
2018-05-16T19:39:27.161Z,74.80
2018-05-16T19:41:56.504Z,74.70
2018-05-16T19:44:25.705Z,74.40
2018-05-16T19:46:55.283Z,74.40
2018-05-16T19:49:24.936Z,74.30
2018-05-16T19:51:54.202Z,74.20
2018-05-16T19:54:23.527Z,73.80
2018-05-16T19:56:53.568Z,73.50
2018-05-16T19:59:23.067Z,73.50
2018-05-16T20:01:52.548Z,73.50
2018-05-16T20:04:22.709Z,73.30
2018-05-16T20:06:52.271Z,73.10
2018-05-16T20:09:21.413Z,73.50
2018-05-16T20:11:52.071Z,73.50
2018-05-16T20:14:21.458Z,73.40
2018-05-16T20:16:50.660Z,73.00
2018-05-16T20:19:19.817Z,73.20
2018-05-16T20:21:49.786Z,73.90
2018-05-16T20:24:19.184Z,73.90
2018-05-16T20:26:48.299Z,74.00
2018-05-16T20:29:17.311Z,74.20
2018-05-16T20:31:47.787Z,74.20
2018-05-16T20:34:18.210Z,73.90
2018-05-16T20:36:49.978Z,73.80
2018-05-16T20:39:19.037Z,73.70
2018-05-16T20:41:48.876Z,74.20
2018-05-16T20:44:18.148Z,74.20
2018-05-16T20:46:47.473Z,74.40
2018-05-16T20:49:16.617Z,74.60
2018-05-16T20:51:45.687Z,74.20
2018-05-16T20:54:14.772Z,74.20
2018-05-16T20:56:44.540Z,74.30
2018-05-16T20:59:14.347Z,74.20
2018-05-16T21:01:44.125Z,74.20
2018-05-16T21:04:13.172Z,74.20
2018-05-16T21:06:42.252Z,74.30
2018-05-16T21:09:11.235Z,74.20
2018-05-16T21:11:41.012Z,74.30
2018-05-16T21:14:10.046Z,74.30
2018-05-16T21:16:39.864Z,74.00
2018-05-16T21:19:08.896Z,73.90
2018-05-16T21:21:38.011Z,73.70
2018-05-16T21:24:07.050Z,73.40
2018-05-16T21:26:36.082Z,73.40
2018-05-16T21:29:05.088Z,73.40
2018-05-16T21:31:34.137Z,73.20
2018-05-16T21:34:03.605Z,72.90
2018-05-16T21:36:32.644Z,72.70
2018-05-16T21:39:01.700Z,73.10
2018-05-16T21:41:31.467Z,73.60
2018-05-16T21:44:00.612Z,73.50
2018-05-16T21:46:30.394Z,74.80
2018-05-16T21:48:59.708Z,73.90
2018-05-16T21:51:28.857Z,73.70
2018-05-16T21:53:58.367Z,72.60
2018-05-16T21:56:27.378Z,72.00
2018-05-16T21:58:56.419Z,72.50
